createdAt,value
2022-11-30T00:01:21.503Z,7.60
2022-11-30T00:03:48.732Z,7.50
2022-11-30T00:06:22.723Z,7.50
2022-11-30T00:08:54.084Z,7.60
2022-11-30T00:11:22.438Z,7.60
2022-11-30T00:13:49.182Z,7.60
2022-11-30T00:16:16.071Z,7.40
2022-11-30T00:18:42.782Z,7.50
2022-11-30T00:21:12.865Z,7.40
2022-11-30T00:23:41.967Z,7.60
2022-11-30T00:26:11.491Z,7.60
2022-11-30T00:28:38.920Z,7.60
2022-11-30T00:31:08.860Z,7.50
2022-11-30T00:33:37.369Z,7.70
2022-11-30T00:36:10.514Z,7.60
2022-11-30T00:38:37.190Z,7.50
2022-11-30T00:41:04.358Z,7.40
2022-11-30T00:43:31.065Z,7.40
2022-11-30T00:45:58.258Z,7.60
2022-11-30T00:48:25.387Z,7.60
2022-11-30T00:50:52.377Z,7.60
2022-11-30T00:53:19.916Z,7.70
2022-11-30T00:55:47.611Z,7.60
2022-11-30T00:58:17.648Z,7.50
2022-11-30T01:00:44.712Z,7.40
2022-11-30T01:03:12.410Z,7.40
2022-11-30T01:05:41.131Z,7.60
2022-11-30T01:08:10.036Z,7.40
2022-11-30T01:10:38.365Z,7.30
2022-11-30T01:13:05.838Z,7.20
2022-11-30T01:15:37.209Z,7.20
2022-11-30T01:18:04.368Z,7.00
2022-11-30T01:20:31.039Z,7.00
2022-11-30T01:22:57.719Z,7.00
2022-11-30T01:25:24.463Z,7.00
2022-11-30T01:27:51.632Z,7.00
2022-11-30T01:30:18.963Z,6.90
2022-11-30T01:32:45.609Z,6.90
2022-11-30T01:35:12.402Z,6.80
2022-11-30T01:37:39.205Z,6.90
2022-11-30T01:40:06.688Z,6.90
2022-11-30T01:42:33.619Z,7.00
2022-11-30T01:45:02.352Z,7.10
2022-11-30T01:47:33.434Z,7.20
2022-11-30T01:50:08.495Z,7.10
2022-11-30T01:52:43.395Z,7.00
2022-11-30T01:55:26.868Z,7.10
2022-11-30T01:58:01.754Z,7.00
2022-11-30T02:00:28.587Z,6.90
2022-11-30T02:03:41.965Z,6.90
2022-11-30T02:06:08.671Z,7.00
2022-11-30T02:08:35.512Z,7.00
2022-11-30T02:11:10.051Z,6.90
2022-11-30T02:14:01.084Z,7.00
2022-11-30T02:16:58.917Z,7.10
2022-11-30T02:19:37.969Z,7.30
2022-11-30T02:22:31.120Z,7.20
2022-11-30T02:25:20.436Z,7.20
2022-11-30T02:28:09.100Z,7.10
2022-11-30T02:30:40.725Z,6.80
2022-11-30T02:33:11.786Z,6.70
2022-11-30T02:35:43.279Z,6.70
2022-11-30T02:38:11.163Z,6.70
2022-11-30T02:40:38.122Z,6.70
2022-11-30T02:43:06.549Z,6.80
2022-11-30T02:46:05.602Z,6.90
2022-11-30T02:49:00.816Z,7.00
2022-11-30T02:51:31.645Z,7.00
2022-11-30T02:53:58.501Z,6.80
2022-11-30T02:56:25.746Z,6.80
2022-11-30T02:58:52.497Z,6.80
2022-11-30T03:01:19.185Z,6.90
2022-11-30T03:03:45.891Z,6.80
2022-11-30T03:06:12.581Z,7.00
2022-11-30T03:08:39.220Z,6.80
2022-11-30T03:11:06.140Z,6.80
2022-11-30T03:13:33.979Z,6.80
2022-11-30T03:16:12.642Z,6.70
2022-11-30T03:18:40.524Z,6.60
2022-11-30T03:21:09.156Z,6.60
2022-11-30T03:23:36.525Z,6.70
2022-11-30T03:26:03.880Z,6.70
2022-11-30T03:28:30.575Z,6.70
2022-11-30T03:30:57.633Z,6.70
2022-11-30T03:33:24.920Z,6.70
2022-11-30T03:36:06.003Z,6.70
2022-11-30T03:38:32.916Z,6.70
2022-11-30T03:41:04.919Z,6.80
2022-11-30T03:43:32.357Z,6.80
2022-11-30T03:45:59.049Z,6.90
2022-11-30T03:48:25.787Z,6.90
2022-11-30T03:50:52.659Z,6.90
2022-11-30T03:53:21.800Z,7.00
2022-11-30T03:56:09.460Z,7.00
2022-11-30T03:58:36.673Z,7.00
2022-11-30T04:01:12.534Z,7.00
2022-11-30T04:03:40.120Z,7.00
2022-11-30T04:06:08.540Z,6.80
2022-11-30T04:08:36.204Z,6.80
2022-11-30T04:11:04.164Z,6.80
2022-11-30T04:13:32.905Z,7.00
2022-11-30T04:15:59.785Z,7.00
2022-11-30T04:18:28.404Z,7.00
2022-11-30T04:20:57.214Z,7.00
2022-11-30T04:23:25.305Z,7.00
2022-11-30T04:25:52.550Z,7.00
2022-11-30T04:28:19.537Z,6.90
2022-11-30T04:30:46.786Z,7.00
2022-11-30T04:33:15.476Z,7.00
2022-11-30T04:35:48.773Z,7.20
2022-11-30T04:38:15.483Z,7.00
2022-11-30T04:40:43.160Z,7.10
2022-11-30T04:43:11.663Z,7.10
2022-11-30T04:45:38.711Z,7.10
2022-11-30T04:48:06.352Z,7.10
2022-11-30T04:50:34.063Z,7.10
2022-11-30T04:53:00.731Z,7.00
2022-11-30T04:55:27.444Z,7.20
2022-11-30T04:57:54.260Z,7.30
2022-11-30T05:00:21.130Z,7.10
2022-11-30T05:02:52.785Z,7.10
2022-11-30T05:05:20.152Z,7.10
2022-11-30T05:07:50.879Z,7.20
2022-11-30T05:10:17.768Z,7.20
2022-11-30T05:12:45.247Z,7.20
2022-11-30T05:15:11.970Z,7.10
2022-11-30T05:17:38.942Z,6.90
2022-11-30T05:20:06.443Z,7.00
2022-11-30T05:22:35.028Z,7.00
2022-11-30T05:25:01.834Z,6.90
2022-11-30T05:27:28.540Z,6.90
2022-11-30T05:29:55.224Z,6.90
2022-11-30T05:32:21.894Z,7.00
2022-11-30T05:34:52.214Z,7.00
2022-11-30T05:37:19.463Z,7.00
2022-11-30T05:39:46.288Z,6.90
2022-11-30T05:42:13.067Z,6.80
2022-11-30T05:44:39.779Z,6.90
2022-11-30T05:47:06.533Z,6.90
2022-11-30T05:49:33.200Z,6.90
2022-11-30T05:51:59.892Z,6.80
2022-11-30T05:54:26.540Z,6.80
2022-11-30T05:56:55.219Z,6.70
2022-11-30T05:59:22.677Z,6.70
2022-11-30T06:01:51.261Z,6.80
2022-11-30T06:04:18.014Z,6.90
2022-11-30T06:06:44.740Z,6.90
2022-11-30T06:09:11.383Z,6.90
2022-11-30T06:11:38.047Z,6.80
2022-11-30T06:14:04.721Z,6.80
2022-11-30T06:16:31.464Z,6.70
2022-11-30T06:18:58.159Z,6.70
2022-11-30T06:21:25.123Z,6.70
2022-11-30T06:23:52.533Z,6.70
2022-11-30T06:26:19.268Z,6.70
2022-11-30T06:28:48.505Z,6.60
2022-11-30T06:31:16.159Z,6.50
2022-11-30T06:33:43.286Z,6.80
2022-11-30T06:36:10.561Z,6.80
2022-11-30T06:38:37.624Z,6.80
2022-11-30T06:41:09.234Z,6.90
2022-11-30T06:43:38.165Z,6.80
2022-11-30T06:46:06.363Z,6.70
2022-11-30T06:48:33.824Z,6.80
2022-11-30T06:51:00.756Z,6.90
2022-11-30T06:53:27.761Z,7.10
2022-11-30T06:55:54.623Z,7.40
2022-11-30T06:58:21.606Z,7.40
2022-11-30T07:00:48.462Z,7.30
2022-11-30T07:03:15.441Z,7.00
2022-11-30T07:05:44.653Z,7.10
2022-11-30T07:08:12.731Z,7.40
2022-11-30T07:10:44.852Z,7.40
2022-11-30T07:13:12.974Z,7.20
2022-11-30T07:15:41.088Z,7.20
2022-11-30T07:18:08.935Z,7.40
2022-11-30T07:20:36.314Z,7.50
2022-11-30T07:23:23.104Z,7.20
2022-11-30T07:26:12.240Z,7.20
2022-11-30T07:28:44.191Z,7.10
2022-11-30T07:31:18.169Z,7.20
2022-11-30T07:33:45.040Z,7.30
2022-11-30T07:36:12.082Z,7.40
2022-11-30T07:38:39.223Z,7.50
2022-11-30T07:41:06.265Z,7.50
2022-11-30T07:43:33.060Z,7.30
2022-11-30T07:46:00.796Z,7.30
2022-11-30T07:48:28.240Z,7.30
2022-11-30T07:51:01.611Z,7.20
2022-11-30T07:53:28.857Z,7.30
2022-11-30T07:56:02.030Z,7.30
2022-11-30T07:58:30.201Z,7.30
2022-11-30T08:01:04.538Z,7.30
2022-11-30T08:03:36.616Z,7.60
2022-11-30T08:06:09.282Z,7.60
2022-11-30T08:08:41.158Z,7.70
2022-11-30T08:11:09.557Z,7.60
2022-11-30T08:13:36.307Z,7.50
2022-11-30T08:16:05.223Z,7.60
2022-11-30T08:18:32.102Z,7.80
2022-11-30T08:21:00.004Z,7.60
2022-11-30T08:23:39.610Z,7.60
2022-11-30T08:26:11.698Z,7.60
2022-11-30T08:28:38.801Z,7.70
2022-11-30T08:31:09.169Z,7.80
2022-11-30T08:33:36.761Z,7.80
2022-11-30T08:36:18.034Z,7.70
2022-11-30T08:38:45.765Z,7.90
2022-11-30T08:41:19.023Z,7.90
2022-11-30T08:43:46.294Z,7.80
2022-11-30T08:46:49.109Z,7.90
2022-11-30T08:49:20.528Z,7.80
2022-11-30T08:54:39.061Z,7.80
2022-11-30T08:57:05.806Z,7.90
2022-11-30T08:59:32.568Z,7.90
2022-11-30T09:01:59.242Z,8.00
2022-11-30T09:04:25.992Z,7.80
2022-11-30T09:06:52.763Z,7.60
2022-11-30T09:09:19.801Z,7.50
2022-11-30T09:11:46.470Z,7.60
2022-11-30T09:14:13.232Z,7.60
2022-11-30T09:16:40.041Z,7.60
2022-11-30T09:19:06.740Z,7.60
2022-11-30T09:21:33.993Z,7.70
2022-11-30T09:24:00.892Z,7.90
2022-11-30T09:26:27.750Z,7.90
2022-11-30T09:28:54.811Z,7.90
2022-11-30T09:31:24.224Z,7.80
2022-11-30T09:33:52.455Z,7.80
2022-11-30T09:36:21.911Z,7.90
2022-11-30T09:38:49.138Z,7.90
2022-11-30T09:41:30.509Z,8.00
2022-11-30T09:44:09.362Z,7.90
2022-11-30T09:46:49.932Z,7.80
2022-11-30T09:49:19.073Z,7.90
2022-11-30T09:51:47.899Z,7.90
2022-11-30T09:54:22.685Z,7.90
2022-11-30T09:56:50.676Z,7.80
2022-11-30T09:59:29.518Z,7.90
2022-11-30T10:01:57.948Z,7.80
2022-11-30T10:04:29.766Z,7.70
2022-11-30T10:07:06.960Z,7.80
2022-11-30T10:10:30.219Z,7.80
2022-11-30T10:13:13.859Z,8.00
2022-11-30T10:16:09.816Z,8.00
2022-11-30T10:19:05.642Z,8.10
2022-11-30T10:22:03.171Z,8.20
2022-11-30T10:24:48.938Z,8.30
2022-11-30T10:27:45.444Z,8.40
2022-11-30T10:30:31.176Z,8.40
2022-11-30T10:33:05.360Z,8.50
2022-11-30T10:35:41.973Z,8.50
2022-11-30T10:38:21.577Z,8.70
2022-11-30T10:41:10.524Z,8.70
2022-11-30T10:43:45.365Z,9.00
2022-11-30T10:46:27.584Z,9.20
2022-11-30T10:49:04.155Z,9.00
2022-11-30T10:51:33.583Z,8.90
2022-11-30T10:54:01.571Z,8.90
2022-11-30T10:56:28.244Z,8.80
2022-11-30T10:59:07.059Z,8.70
2022-11-30T11:01:36.406Z,8.70
2022-11-30T11:04:22.373Z,8.70
2022-11-30T11:06:51.662Z,8.70
2022-11-30T11:09:27.404Z,8.70
2022-11-30T11:11:55.547Z,8.50
2022-11-30T11:14:24.124Z,8.50
2022-11-30T11:17:03.396Z,8.50
2022-11-30T11:19:41.821Z,8.50
2022-11-30T11:22:20.712Z,8.40
2022-11-30T11:24:51.880Z,8.40
2022-11-30T11:27:25.103Z,8.20
2022-11-30T11:30:02.833Z,8.00
2022-11-30T11:32:30.935Z,8.10
2022-11-30T11:34:58.690Z,8.20
2022-11-30T11:37:31.029Z,8.10
2022-11-30T11:40:17.637Z,8.00
2022-11-30T11:42:52.008Z,7.90
2022-11-30T11:45:23.829Z,7.90
2022-11-30T11:48:05.985Z,8.00
2022-11-30T11:51:05.727Z,8.00
2022-11-30T11:53:51.629Z,8.20
2022-11-30T11:56:24.278Z,8.20
2022-11-30T11:58:56.372Z,8.30
2022-11-30T12:01:41.856Z,8.20
2022-11-30T12:04:26.567Z,8.10
2022-11-30T12:06:55.569Z,8.10
2022-11-30T12:09:31.314Z,8.10
2022-11-30T12:11:57.998Z,8.10
2022-11-30T12:14:25.593Z,8.20
2022-11-30T12:17:07.350Z,8.30
2022-11-30T12:19:49.882Z,8.30
2022-11-30T12:22:48.301Z,8.20
2022-11-30T12:25:30.009Z,8.00
2022-11-30T12:28:15.108Z,8.00
2022-11-30T12:31:10.531Z,7.90
2022-11-30T12:33:49.292Z,8.10
2022-11-30T12:36:21.789Z,8.10
2022-11-30T12:38:49.894Z,8.10
2022-11-30T12:41:28.088Z,8.10
2022-11-30T12:44:08.158Z,8.10
2022-11-30T12:46:56.186Z,8.00
2022-11-30T12:49:47.257Z,7.80
2022-11-30T12:52:57.447Z,7.70
2022-11-30T12:55:50.303Z,7.60
2022-11-30T12:58:54.535Z,7.80
2022-11-30T13:01:30.245Z,7.60
2022-11-30T13:04:21.190Z,7.50
2022-11-30T13:07:08.672Z,7.70
2022-11-30T13:09:41.122Z,7.70
2022-11-30T13:12:13.726Z,7.50
2022-11-30T13:14:41.417Z,7.50
2022-11-30T13:17:16.636Z,7.50
2022-11-30T13:19:55.782Z,7.60
2022-11-30T13:22:43.596Z,7.50
2022-11-30T13:26:05.728Z,7.60
2022-11-30T13:28:23.374Z,7.60
2022-11-30T13:31:05.160Z,7.50
2022-11-30T13:33:35.165Z,7.40
2022-11-30T13:36:07.279Z,7.40
2022-11-30T13:38:37.393Z,7.60
2022-11-30T13:41:07.320Z,7.70
2022-11-30T13:43:49.405Z,7.90
2022-11-30T13:46:21.627Z,8.00
2022-11-30T13:48:48.702Z,8.00
2022-11-30T13:51:35.721Z,8.00
2022-11-30T13:54:45.423Z,7.80
2022-11-30T13:57:17.104Z,7.80
2022-11-30T13:59:51.914Z,7.90
2022-11-30T14:02:33.833Z,7.70
2022-11-30T14:05:18.987Z,7.80
2022-11-30T14:08:00.880Z,7.90
2022-11-30T14:10:34.733Z,7.70
2022-11-30T14:13:05.312Z,7.50
2022-11-30T14:15:44.036Z,7.20
2022-11-30T14:18:10.636Z,7.10
2022-11-30T14:20:42.926Z,7.20
2022-11-30T14:23:18.843Z,7.30
2022-11-30T14:25:52.279Z,7.40
2022-11-30T14:28:32.932Z,7.50
2022-11-30T14:31:00.522Z,7.40
2022-11-30T14:33:42.971Z,7.40
2022-11-30T14:36:10.923Z,7.40
2022-11-30T14:38:42.287Z,7.50
2022-11-30T14:41:25.465Z,7.70
2022-11-30T14:44:02.434Z,7.50
2022-11-30T14:46:30.314Z,7.50
2022-11-30T14:49:11.203Z,7.60
2022-11-30T14:51:38.573Z,7.60
2022-11-30T14:54:34.735Z,7.60
2022-11-30T14:57:12.807Z,7.50
2022-11-30T14:59:50.511Z,7.60
2022-11-30T15:02:31.205Z,7.70
2022-11-30T15:04:59.644Z,7.50
2022-11-30T15:07:27.444Z,7.50
2022-11-30T15:10:03.583Z,7.50
2022-11-30T15:12:31.339Z,7.40
2022-11-30T15:15:08.246Z,7.50
2022-11-30T15:17:46.616Z,7.50
2022-11-30T15:20:39.582Z,7.50
2022-11-30T15:23:13.840Z,7.70
2022-11-30T15:25:47.375Z,7.50
2022-11-30T15:28:22.107Z,7.60
2022-11-30T15:30:53.171Z,7.70
2022-11-30T15:33:23.654Z,7.60
2022-11-30T15:38:41.707Z,7.60
2022-11-30T15:41:19.107Z,7.60
2022-11-30T15:43:51.388Z,7.60
2022-11-30T15:46:45.795Z,7.60
2022-11-30T15:49:12.860Z,7.60
2022-11-30T15:51:42.381Z,7.60
2022-11-30T15:54:09.108Z,7.50
2022-11-30T15:56:36.344Z,7.60
2022-11-30T15:59:19.374Z,7.70
2022-11-30T16:02:08.793Z,7.50
2022-11-30T16:04:57.428Z,7.40
2022-11-30T16:07:33.750Z,7.50
2022-11-30T16:10:14.221Z,7.50
2022-11-30T16:12:43.324Z,7.50
2022-11-30T16:15:31.493Z,7.60
2022-11-30T16:18:24.257Z,7.60
2022-11-30T16:20:53.841Z,7.60
2022-11-30T16:23:21.212Z,7.40
2022-11-30T16:25:49.614Z,7.50
2022-11-30T16:28:17.653Z,7.50
2022-11-30T16:30:45.400Z,7.50
2022-11-30T16:33:21.185Z,7.50
2022-11-30T16:36:16.942Z,7.40
2022-11-30T16:38:46.799Z,7.30
2022-11-30T16:41:15.455Z,7.30
2022-11-30T16:43:43.201Z,7.40
2022-11-30T16:46:15.063Z,7.30
2022-11-30T16:48:42.492Z,7.20
2022-11-30T16:51:34.622Z,7.00
2022-11-30T16:54:01.630Z,6.90
2022-11-30T16:56:28.370Z,6.80
2022-11-30T16:58:55.070Z,6.80
2022-11-30T17:01:35.468Z,6.80
2022-11-30T17:04:23.358Z,6.90
2022-11-30T17:06:53.640Z,6.80
2022-11-30T17:09:22.895Z,6.70
2022-11-30T17:11:50.856Z,6.80
2022-11-30T17:14:18.378Z,6.70
2022-11-30T17:16:45.101Z,6.60
2022-11-30T17:19:11.765Z,6.50
2022-11-30T17:21:39.324Z,6.30
2022-11-30T17:24:06.512Z,6.20
2022-11-30T17:26:33.505Z,5.90
2022-11-30T17:29:00.338Z,5.70
2022-11-30T17:31:27.310Z,5.60
2022-11-30T17:33:54.049Z,5.70
2022-11-30T17:36:20.914Z,5.70
2022-11-30T17:38:47.599Z,5.70
2022-11-30T17:41:19.208Z,5.70
2022-11-30T17:43:47.772Z,5.80
2022-11-30T17:46:17.593Z,5.80
2022-11-30T17:48:44.998Z,5.60
2022-11-30T17:51:12.469Z,5.60
2022-11-30T17:53:40.291Z,5.60
2022-11-30T17:56:15.165Z,5.50
2022-11-30T17:58:44.548Z,5.40
2022-11-30T18:01:26.166Z,5.50
2022-11-30T18:03:53.947Z,5.60
2022-11-30T18:06:20.928Z,5.70
2022-11-30T18:08:47.805Z,5.70
2022-11-30T18:11:17.457Z,5.80
2022-11-30T18:13:44.164Z,5.80
2022-11-30T18:16:13.917Z,5.90
2022-11-30T18:18:47.091Z,5.90
2022-11-30T18:21:16.765Z,5.90
2022-11-30T18:23:43.629Z,5.80
2022-11-30T18:26:21.712Z,5.70
2022-11-30T18:28:57.088Z,5.70
2022-11-30T18:31:24.622Z,5.60
2022-11-30T18:34:03.136Z,5.60
2022-11-30T18:36:30.879Z,5.50
2022-11-30T18:38:57.848Z,5.50
2022-11-30T18:41:26.252Z,5.30
2022-11-30T18:43:53.801Z,5.30
2022-11-30T18:46:21.011Z,5.30
2022-11-30T18:48:51.989Z,5.30
2022-11-30T18:51:24.882Z,5.30
2022-11-30T18:53:57.766Z,5.10
2022-11-30T18:56:26.779Z,5.00
2022-11-30T18:58:58.640Z,5.00
2022-11-30T19:01:25.863Z,5.10
2022-11-30T19:03:54.466Z,5.10
2022-11-30T19:06:21.663Z,5.10
2022-11-30T19:08:48.782Z,5.20
2022-11-30T19:11:16.257Z,5.30
